Main page
METAR-TAF:

METAR-TAF

Airports :

Copenhagen, Denmark

Copenhagen Airport

latitude: 55-37N, longitude: 012-39E, elevation: 5 m

Current weather observation

The report was made 39 minutes ago, at 11:20 UTC
Wind 13 kt from the Northwest
Temperature 20°C
Humidity 64%
Pressure 1015 hPa
Visibility 10 km or more
Scattered clouds at a height of 2800 ft

METAR: EKCH 211120Z 31013KT 9999 SCT028 20/13 Q1015 NOSIG

Time: 13:59 (11:59 UTC)

Forecast

The report was made 1 hour and 4 minutes ago, at 10:55 UTC
Forecast valid from 21 at 12 UTC to 22 at 12 UTC
Wind 17 kt from the West/Northwest
Visibility 10 km or more
Scattered clouds at a height of 2000 ft
Becoming
from 21 at 17 UTC to 21 at 19 UTC
Wind 10 kt from the West/Northwest
Temporary
from 22 at 01 UTC to 22 at 08 UTC
Broken clouds at a height of 1200 ft
Scattered clouds at a height of 2000 ft, Cumulonimbus.
rain showers

TAF: EKCH 211055Z 2112/2212 30017KT 9999 SCT020 BECMG 2117/2119 29010KT TEMPO 2201/2208 SHRA BKN012 SCT020CB

Weather observations and forecasts of more than 4000 airports (METAR and TAF reports).

The available stations are represented by yellow and red dots on the map.

Hover mouse over dot to see the name of the station.

Then click to see weather observations and forecasts.

To change the map : click on the green buttons with a black cross to zoom in, on the green button with a dash to zoom out, or on the green arrows for adjacent maps.


METAR-TAF: